sensor_id;sensor_type;location;lat;lon;timestamp;P1;durP1;ratioP1;P2;durP2;ratioP2
18804;SDS011;9530;48.930;9.526;2022-07-23T00:00:58;5.73;;;4.60;;
18804;SDS011;9530;48.930;9.526;2022-07-23T00:03:25;5.97;;;4.20;;
18804;SDS011;9530;48.930;9.526;2022-07-23T00:05:51;5.07;;;4.40;;
18804;SDS011;9530;48.930;9.526;2022-07-23T00:08:18;4.80;;;4.30;;
18804;SDS011;9530;48.930;9.526;2022-07-23T00:10:45;4.77;;;4.30;;
18804;SDS011;9530;48.930;9.526;2022-07-23T00:13:11;8.63;;;3.80;;
18804;SDS011;9530;48.930;9.526;2022-07-23T00:15:38;4.97;;;4.43;;
18804;SDS011;9530;48.930;9.526;2022-07-23T00:18:06;5.77;;;3.80;;
18804;SDS011;9530;48.930;9.526;2022-07-23T00:20:33;7.00;;;4.00;;
18804;SDS011;9530;48.930;9.526;2022-07-23T00:23:00;5.33;;;3.80;;
18804;SDS011;9530;48.930;9.526;2022-07-23T00:25:27;5.60;;;3.80;;
18804;SDS011;9530;48.930;9.526;2022-07-23T00:27:53;7.77;;;3.73;;
18804;SDS011;9530;48.930;9.526;2022-07-23T00:30:20;4.07;;;3.70;;
18804;SDS011;9530;48.930;9.526;2022-07-23T00:32:47;5.63;;;3.83;;
18804;SDS011;9530;48.930;9.526;2022-07-23T00:35:18;5.67;;;3.93;;
18804;SDS011;9530;48.930;9.526;2022-07-23T00:37:46;4.67;;;3.73;;
18804;SDS011;9530;48.930;9.526;2022-07-23T00:40:13;4.83;;;3.90;;
18804;SDS011;9530;48.930;9.526;2022-07-23T00:42:40;5.73;;;3.67;;
18804;SDS011;9530;48.930;9.526;2022-07-23T00:45:07;3.50;;;3.13;;
18804;SDS011;9530;48.930;9.526;2022-07-23T00:47:35;3.67;;;3.37;;
18804;SDS011;9530;48.930;9.526;2022-07-23T00:50:02;4.93;;;3.50;;
18804;SDS011;9530;48.930;9.526;2022-07-23T00:52:31;3.37;;;3.00;;
18804;SDS011;9530;48.930;9.526;2022-07-23T00:54:58;5.83;;;3.03;;
18804;SDS011;9530;48.930;9.526;2022-07-23T00:57:25;4.67;;;3.10;;
18804;SDS011;9530;48.930;9.526;2022-07-23T00:59:53;3.73;;;3.40;;
18804;SDS011;9530;48.930;9.526;2022-07-23T01:02:19;6.87;;;3.40;;
18804;SDS011;9530;48.930;9.526;2022-07-23T01:04:46;3.40;;;3.03;;
18804;SDS011;9530;48.930;9.526;2022-07-23T01:07:13;4.43;;;2.90;;
18804;SDS011;9530;48.930;9.526;2022-07-23T01:09:41;5.33;;;3.27;;
18804;SDS011;9530;48.930;9.526;2022-07-23T01:12:09;5.43;;;3.50;;
18804;SDS011;9530;48.930;9.526;2022-07-23T01:14:35;5.03;;;3.37;;
18804;SDS011;9530;48.930;9.526;2022-07-23T01:17:02;6.53;;;3.50;;
18804;SDS011;9530;48.930;9.526;2022-07-23T01:19:29;4.00;;;3.23;;
18804;SDS011;9530;48.930;9.526;2022-07-23T01:21:56;5.37;;;3.07;;
18804;SDS011;9530;48.930;9.526;2022-07-23T01:24:25;3.93;;;3.00;;
18804;SDS011;9530;48.930;9.526;2022-07-23T01:26:52;5.93;;;3.13;;
18804;SDS011;9530;48.930;9.526;2022-07-23T01:29:19;4.23;;;3.10;;
18804;SDS011;9530;48.930;9.526;2022-07-23T01:31:46;5.07;;;3.30;;
18804;SDS011;9530;48.930;9.526;2022-07-23T01:34:13;3.50;;;3.03;;
18804;SDS011;9530;48.930;9.526;2022-07-23T01:36:40;3.57;;;3.00;;
18804;SDS011;9530;48.930;9.526;2022-07-23T01:39:07;4.40;;;3.10;;
18804;SDS011;9530;48.930;9.526;2022-07-23T01:41:35;3.80;;;3.23;;
18804;SDS011;9530;48.930;9.526;2022-07-23T01:44:02;4.37;;;3.30;;
18804;SDS011;9530;48.930;9.526;2022-07-23T01:46:28;6.57;;;3.50;;
18804;SDS011;9530;48.930;9.526;2022-07-23T01:48:55;4.07;;;3.40;;
18804;SDS011;9530;48.930;9.526;2022-07-23T01:51:22;3.27;;;2.97;;
18804;SDS011;9530;48.930;9.526;2022-07-23T01:53:48;3.97;;;3.13;;
18804;SDS011;9530;48.930;9.526;2022-07-23T01:56:15;3.97;;;3.00;;
18804;SDS011;9530;48.930;9.526;2022-07-23T01:58:45;3.50;;;3.20;;
18804;SDS011;9530;48.930;9.526;2022-07-23T02:01:11;3.97;;;3.50;;
18804;SDS011;9530;48.930;9.526;2022-07-23T02:03:38;3.40;;;3.10;;
18804;SDS011;9530;48.930;9.526;2022-07-23T02:06:05;4.67;;;3.20;;
18804;SDS011;9530;48.930;9.526;2022-07-23T02:08:31;3.77;;;3.40;;
18804;SDS011;9530;48.930;9.526;2022-07-23T02:10:58;3.33;;;2.80;;
18804;SDS011;9530;48.930;9.526;2022-07-23T02:13:25;3.30;;;3.00;;
18804;SDS011;9530;48.930;9.526;2022-07-23T02:15:55;4.40;;;3.20;;
18804;SDS011;9530;48.930;9.526;2022-07-23T02:18:21;3.17;;;2.87;;
18804;SDS011;9530;48.930;9.526;2022-07-23T02:20:48;3.50;;;3.20;;
18804;SDS011;9530;48.930;9.526;2022-07-23T02:23:14;4.03;;;3.00;;
18804;SDS011;9530;48.930;9.526;2022-07-23T02:25:41;4.60;;;3.10;;
18804;SDS011;9530;48.930;9.526;2022-07-23T02:28:08;5.63;;;3.43;;
18804;SDS011;9530;48.930;9.526;2022-07-23T02:30:35;5.33;;;3.00;;
18804;SDS011;9530;48.930;9.526;2022-07-23T02:33:04;3.67;;;3.10;;
18804;SDS011;9530;48.930;9.526;2022-07-23T02:35:30;3.33;;;2.90;;
18804;SDS011;9530;48.930;9.526;2022-07-23T02:37:57;3.97;;;3.07;;
18804;SDS011;9530;48.930;9.526;2022-07-23T02:40:24;4.20;;;3.10;;
18804;SDS011;9530;48.930;9.526;2022-07-23T02:42:50;4.27;;;3.30;;
18804;SDS011;9530;48.930;9.526;2022-07-23T02:45:17;3.30;;;3.00;;
18804;SDS011;9530;48.930;9.526;2022-07-23T02:47:44;3.50;;;3.20;;
18804;SDS011;9530;48.930;9.526;2022-07-23T02:50:12;4.00;;;3.23;;
18804;SDS011;9530;48.930;9.526;2022-07-23T02:52:38;5.57;;;3.10;;
18804;SDS011;9530;48.930;9.526;2022-07-23T02:55:05;3.77;;;3.33;;
18804;SDS011;9530;48.930;9.526;2022-07-23T02:57:32;4.47;;;3.00;;
18804;SDS011;9530;48.930;9.526;2022-07-23T02:59:59;4.53;;;3.30;;
18804;SDS011;9530;48.930;9.526;2022-07-23T03:02:26;4.33;;;3.27;;
18804;SDS011;9530;48.930;9.526;2022-07-23T03:04:53;4.73;;;3.20;;
18804;SDS011;9530;48.930;9.526;2022-07-23T03:07:21;3.93;;;3.23;;
18804;SDS011;9530;48.930;9.526;2022-07-23T03:09:47;5.30;;;3.90;;
18804;SDS011;9530;48.930;9.526;2022-07-23T03:12:14;4.07;;;3.53;;
18804;SDS011;9530;48.930;9.526;2022-07-23T03:14:41;4.17;;;3.60;;
18804;SDS011;9530;48.930;9.526;2022-07-23T03:17:08;3.77;;;3.47;;
18804;SDS011;9530;48.930;9.526;2022-07-23T03:19:35;3.70;;;3.27;;
18804;SDS011;9530;48.930;9.526;2022-07-23T03:22:02;4.97;;;3.83;;
18804;SDS011;9530;48.930;9.526;2022-07-23T03:24:30;4.73;;;3.40;;
18804;SDS011;9530;48.930;9.526;2022-07-23T03:27:11;5.33;;;3.40;;
18804;SDS011;9530;48.930;9.526;2022-07-23T03:29:37;4.00;;;3.03;;
18804;SDS011;9530;48.930;9.526;2022-07-23T03:32:04;5.77;;;3.43;;
18804;SDS011;9530;48.930;9.526;2022-07-23T03:34:31;3.40;;;3.10;;
18804;SDS011;9530;48.930;9.526;2022-07-23T03:36:58;3.67;;;3.33;;
18804;SDS011;9530;48.930;9.526;2022-07-23T03:39:24;5.03;;;3.43;;
18804;SDS011;9530;48.930;9.526;2022-07-23T03:41:53;3.83;;;3.20;;
18804;SDS011;9530;48.930;9.526;2022-07-23T03:44:19;6.07;;;3.70;;
18804;SDS011;9530;48.930;9.526;2022-07-23T03:49:14;5.53;;;3.40;;
18804;SDS011;9530;48.930;9.526;2022-07-23T03:51:40;5.30;;;3.50;;
18804;SDS011;9530;48.930;9.526;2022-07-23T03:54:07;3.87;;;3.37;;
18804;SDS011;9530;48.930;9.526;2022-07-23T03:56:34;8.27;;;3.47;;
18804;SDS011;9530;48.930;9.526;2022-07-23T03:59:02;4.43;;;3.63;;
18804;SDS011;9530;48.930;9.526;2022-07-23T04:01:28;5.67;;;3.30;;
18804;SDS011;9530;48.930;9.526;2022-07-23T04:03:55;5.90;;;3.47;;
18804;SDS011;9530;48.930;9.526;2022-07-23T04:06:22;4.13;;;3.70;;
18804;SDS011;9530;48.930;9.526;2022-07-23T04:08:49;5.13;;;3.50;;
18804;SDS011;9530;48.930;9.526;2022-07-23T04:11:15;4.23;;;3.73;;
18804;SDS011;9530;48.930;9.526;2022-07-23T04:13:42;4.40;;;4.00;;
18804;SDS011;9530;48.930;9.526;2022-07-23T04:16:10;7.33;;;3.60;;
18804;SDS011;9530;48.930;9.526;2022-07-23T04:18:37;4.17;;;3.77;;
18804;SDS011;9530;48.930;9.526;2022-07-23T04:21:03;5.73;;;3.50;;
18804;SDS011;9530;48.930;9.526;2022-07-23T04:23:30;5.03;;;4.00;;
18804;SDS011;9530;48.930;9.526;2022-07-23T04:25:57;4.37;;;3.97;;
18804;SDS011;9530;48.930;9.526;2022-07-23T04:28:24;4.30;;;3.43;;
18804;SDS011;9530;48.930;9.526;2022-07-23T04:30:50;4.30;;;3.90;;
18804;SDS011;9530;48.930;9.526;2022-07-23T04:33:18;4.53;;;3.87;;
18804;SDS011;9530;48.930;9.526;2022-07-23T04:35:45;5.83;;;4.60;;
18804;SDS011;9530;48.930;9.526;2022-07-23T04:38:12;4.80;;;4.30;;
18804;SDS011;9530;48.930;9.526;2022-07-23T04:40:38;4.20;;;3.80;;
18804;SDS011;9530;48.930;9.526;2022-07-23T04:43:05;4.97;;;4.50;;
18804;SDS011;9530;48.930;9.526;2022-07-23T04:45:32;5.53;;;4.93;;
18804;SDS011;9530;48.930;9.526;2022-07-23T04:47:58;6.33;;;4.70;;
18804;SDS011;9530;48.930;9.526;2022-07-23T04:50:27;5.00;;;4.00;;
18804;SDS011;9530;48.930;9.526;2022-07-23T04:52:54;4.17;;;3.77;;
18804;SDS011;9530;48.930;9.526;2022-07-23T04:55:20;4.40;;;4.00;;
18804;SDS011;9530;48.930;9.526;2022-07-23T04:57:47;4.73;;;3.87;;
18804;SDS011;9530;48.930;9.526;2022-07-23T05:00:14;4.47;;;4.07;;
18804;SDS011;9530;48.930;9.526;2022-07-23T05:02:41;4.67;;;3.97;;
18804;SDS011;9530;48.930;9.526;2022-07-23T05:05:08;4.73;;;4.00;;
18804;SDS011;9530;48.930;9.526;2022-07-23T05:07:36;4.40;;;4.00;;
18804;SDS011;9530;48.930;9.526;2022-07-23T05:10:03;4.93;;;4.37;;
18804;SDS011;9530;48.930;9.526;2022-07-23T05:12:30;4.87;;;4.13;;
18804;SDS011;9530;48.930;9.526;2022-07-23T05:14:57;4.53;;;4.10;;
18804;SDS011;9530;48.930;9.526;2022-07-23T05:17:24;4.57;;;3.90;;
18804;SDS011;9530;48.930;9.526;2022-07-23T05:19:51;4.10;;;3.70;;
18804;SDS011;9530;48.930;9.526;2022-07-23T05:22:17;6.10;;;3.93;;
18804;SDS011;9530;48.930;9.526;2022-07-23T05:24:45;5.27;;;3.90;;
18804;SDS011;9530;48.930;9.526;2022-07-23T05:27:12;6.17;;;4.23;;
18804;SDS011;9530;48.930;9.526;2022-07-23T05:29:39;4.87;;;3.50;;
18804;SDS011;9530;48.930;9.526;2022-07-23T05:32:05;6.17;;;3.97;;
18804;SDS011;9530;48.930;9.526;2022-07-23T05:34:32;6.27;;;4.20;;
18804;SDS011;9530;48.930;9.526;2022-07-23T05:36:59;4.10;;;3.70;;
18804;SDS011;9530;48.930;9.526;2022-07-23T05:39:25;5.03;;;4.33;;
18804;SDS011;9530;48.930;9.526;2022-07-23T05:41:53;6.07;;;4.17;;
18804;SDS011;9530;48.930;9.526;2022-07-23T05:44:20;6.47;;;3.90;;
18804;SDS011;9530;48.930;9.526;2022-07-23T05:46:47;7.20;;;3.97;;
18804;SDS011;9530;48.930;9.526;2022-07-23T05:49:14;6.73;;;4.17;;
18804;SDS011;9530;48.930;9.526;2022-07-23T05:51:40;5.87;;;4.03;;
18804;SDS011;9530;48.930;9.526;2022-07-23T05:54:07;6.13;;;4.07;;
18804;SDS011;9530;48.930;9.526;2022-07-23T05:56:34;4.23;;;3.37;;
18804;SDS011;9530;48.930;9.526;2022-07-23T05:59:02;4.27;;;3.83;;
18804;SDS011;9530;48.930;9.526;2022-07-23T06:01:28;4.77;;;3.93;;
18804;SDS011;9530;48.930;9.526;2022-07-23T06:03:55;4.20;;;3.80;;
18804;SDS011;9530;48.930;9.526;2022-07-23T06:06:22;4.47;;;4.03;;
18804;SDS011;9530;48.930;9.526;2022-07-23T06:08:48;5.63;;;4.00;;
18804;SDS011;9530;48.930;9.526;2022-07-23T06:11:15;6.20;;;4.10;;
18804;SDS011;9530;48.930;9.526;2022-07-23T06:13:42;6.10;;;4.10;;
18804;SDS011;9530;48.930;9.526;2022-07-23T06:16:10;4.70;;;3.97;;
18804;SDS011;9530;48.930;9.526;2022-07-23T06:18:36;4.30;;;3.90;;
18804;SDS011;9530;48.930;9.526;2022-07-23T06:21:03;4.30;;;3.90;;
18804;SDS011;9530;48.930;9.526;2022-07-23T06:23:30;4.23;;;3.63;;
18804;SDS011;9530;48.930;9.526;2022-07-23T06:25:56;4.70;;;3.87;;
18804;SDS011;9530;48.930;9.526;2022-07-23T06:28:23;6.80;;;4.47;;
18804;SDS011;9530;48.930;9.526;2022-07-23T06:30:50;6.23;;;4.30;;
18804;SDS011;9530;48.930;9.526;2022-07-23T06:33:18;7.37;;;4.20;;
18804;SDS011;9530;48.930;9.526;2022-07-23T06:35:44;6.13;;;4.33;;
18804;SDS011;9530;48.930;9.526;2022-07-23T06:38:11;5.20;;;4.47;;
18804;SDS011;9530;48.930;9.526;2022-07-23T06:40:38;4.90;;;4.27;;
18804;SDS011;9530;48.930;9.526;2022-07-23T06:43:04;4.40;;;3.93;;
18804;SDS011;9530;48.930;9.526;2022-07-23T06:45:31;7.87;;;4.97;;
18804;SDS011;9530;48.930;9.526;2022-07-23T06:47:58;6.23;;;4.27;;
18804;SDS011;9530;48.930;9.526;2022-07-23T06:50:26;6.47;;;4.37;;
18804;SDS011;9530;48.930;9.526;2022-07-23T06:52:52;6.17;;;4.63;;
18804;SDS011;9530;48.930;9.526;2022-07-23T06:55:19;7.07;;;5.00;;
18804;SDS011;9530;48.930;9.526;2022-07-23T06:57:46;10.23;;;5.07;;
18804;SDS011;9530;48.930;9.526;2022-07-23T07:00:13;5.33;;;4.70;;
18804;SDS011;9530;48.930;9.526;2022-07-23T07:02:40;5.93;;;5.37;;
18804;SDS011;9530;48.930;9.526;2022-07-23T07:05:06;7.90;;;4.80;;
18804;SDS011;9530;48.930;9.526;2022-07-23T07:07:35;5.33;;;4.83;;
18804;SDS011;9530;48.930;9.526;2022-07-23T07:10:02;6.03;;;4.37;;
18804;SDS011;9530;48.930;9.526;2022-07-23T07:12:29;6.87;;;4.80;;
18804;SDS011;9530;48.930;9.526;2022-07-23T07:14:56;5.73;;;4.63;;
18804;SDS011;9530;48.930;9.526;2022-07-23T07:17:22;5.00;;;4.50;;
18804;SDS011;9530;48.930;9.526;2022-07-23T07:19:49;7.37;;;4.53;;
18804;SDS011;9530;48.930;9.526;2022-07-23T07:22:16;6.67;;;4.73;;
18804;SDS011;9530;48.930;9.526;2022-07-23T07:24:44;9.37;;;5.17;;
18804;SDS011;9530;48.930;9.526;2022-07-23T07:27:10;6.90;;;5.93;;
18804;SDS011;9530;48.930;9.526;2022-07-23T07:29:37;9.03;;;5.67;;
18804;SDS011;9530;48.930;9.526;2022-07-23T07:32:04;7.17;;;5.47;;
18804;SDS011;9530;48.930;9.526;2022-07-23T07:34:31;6.67;;;5.60;;
18804;SDS011;9530;48.930;9.526;2022-07-23T07:36:57;7.23;;;5.10;;
18804;SDS011;9530;48.930;9.526;2022-07-23T07:39:24;7.53;;;6.00;;
18804;SDS011;9530;48.930;9.526;2022-07-23T07:41:52;6.90;;;5.80;;
18804;SDS011;9530;48.930;9.526;2022-07-23T07:44:19;7.13;;;6.20;;
18804;SDS011;9530;48.930;9.526;2022-07-23T07:46:45;8.27;;;6.47;;
18804;SDS011;9530;48.930;9.526;2022-07-23T07:49:12;7.07;;;6.10;;
18804;SDS011;9530;48.930;9.526;2022-07-23T07:51:39;7.63;;;6.60;;
18804;SDS011;9530;48.930;9.526;2022-07-23T07:54:05;9.23;;;6.30;;
18804;SDS011;9530;48.930;9.526;2022-07-23T07:56:32;6.80;;;6.20;;
18804;SDS011;9530;48.930;9.526;2022-07-23T07:59:00;8.67;;;6.10;;
18804;SDS011;9530;48.930;9.526;2022-07-23T08:01:27;9.97;;;5.47;;
18804;SDS011;9530;48.930;9.526;2022-07-23T08:03:53;7.07;;;5.20;;
18804;SDS011;9530;48.930;9.526;2022-07-23T08:06:20;8.47;;;5.50;;
18804;SDS011;9530;48.930;9.526;2022-07-23T08:08:47;6.10;;;5.37;;
18804;SDS011;9530;48.930;9.526;2022-07-23T08:11:14;7.80;;;5.10;;
18804;SDS011;9530;48.930;9.526;2022-07-23T08:13:41;6.03;;;5.43;;
18804;SDS011;9530;48.930;9.526;2022-07-23T08:16:10;7.17;;;4.77;;
18804;SDS011;9530;48.930;9.526;2022-07-23T08:18:37;5.10;;;4.23;;
18804;SDS011;9530;48.930;9.526;2022-07-23T08:21:04;6.80;;;4.77;;
18804;SDS011;9530;48.930;9.526;2022-07-23T08:23:30;5.27;;;4.53;;
18804;SDS011;9530;48.930;9.526;2022-07-23T08:25:57;5.97;;;4.87;;
18804;SDS011;9530;48.930;9.526;2022-07-23T08:28:24;9.37;;;5.60;;
18804;SDS011;9530;48.930;9.526;2022-07-23T08:30:51;6.67;;;5.93;;
18804;SDS011;9530;48.930;9.526;2022-07-23T08:33:19;6.17;;;5.57;;
18804;SDS011;9530;48.930;9.526;2022-07-23T08:35:47;6.90;;;5.63;;
18804;SDS011;9530;48.930;9.526;2022-07-23T08:38:16;6.37;;;5.73;;
18804;SDS011;9530;48.930;9.526;2022-07-23T08:40:44;6.07;;;5.33;;
18804;SDS011;9530;48.930;9.526;2022-07-23T08:43:13;6.33;;;5.73;;
18804;SDS011;9530;48.930;9.526;2022-07-23T08:45:42;6.77;;;6.07;;
18804;SDS011;9530;48.930;9.526;2022-07-23T08:48:11;7.83;;;5.73;;
18804;SDS011;9530;48.930;9.526;2022-07-23T08:50:43;8.67;;;5.90;;
18804;SDS011;9530;48.930;9.526;2022-07-23T08:53:11;8.17;;;6.90;;
18804;SDS011;9530;48.930;9.526;2022-07-23T08:55:38;9.23;;;7.10;;
18804;SDS011;9530;48.930;9.526;2022-07-23T08:58:05;9.87;;;6.87;;
18804;SDS011;9530;48.930;9.526;2022-07-23T09:00:32;10.67;;;7.43;;
18804;SDS011;9530;48.930;9.526;2022-07-23T09:02:59;7.50;;;6.70;;
18804;SDS011;9530;48.930;9.526;2022-07-23T09:05:25;9.43;;;7.63;;
18804;SDS011;9530;48.930;9.526;2022-07-23T09:08:04;10.87;;;6.73;;
18804;SDS011;9530;48.930;9.526;2022-07-23T09:10:46;8.40;;;7.00;;
18804;SDS011;9530;48.930;9.526;2022-07-23T09:13:30;9.40;;;6.30;;
18804;SDS011;9530;48.930;9.526;2022-07-23T09:16:01;8.23;;;6.00;;
18804;SDS011;9530;48.930;9.526;2022-07-23T09:18:40;7.10;;;5.67;;
18804;SDS011;9530;48.930;9.526;2022-07-23T09:21:14;6.50;;;5.90;;
18804;SDS011;9530;48.930;9.526;2022-07-23T09:23:47;7.83;;;5.60;;
18804;SDS011;9530;48.930;9.526;2022-07-23T09:26:25;6.03;;;5.00;;
18804;SDS011;9530;48.930;9.526;2022-07-23T09:28:56;7.17;;;5.07;;
18804;SDS011;9530;48.930;9.526;2022-07-23T09:31:25;7.07;;;5.40;;
18804;SDS011;9530;48.930;9.526;2022-07-23T09:34:05;6.20;;;5.20;;
18804;SDS011;9530;48.930;9.526;2022-07-23T09:36:37;5.30;;;4.33;;
18804;SDS011;9530;48.930;9.526;2022-07-23T09:39:06;3.90;;;3.50;;
18804;SDS011;9530;48.930;9.526;2022-07-23T09:41:34;5.00;;;3.40;;
18804;SDS011;9530;48.930;9.526;2022-07-23T09:44:06;6.00;;;4.00;;
18804;SDS011;9530;48.930;9.526;2022-07-23T09:46:34;4.27;;;3.80;;
18804;SDS011;9530;48.930;9.526;2022-07-23T09:49:09;5.60;;;4.40;;
18804;SDS011;9530;48.930;9.526;2022-07-23T09:51:43;4.13;;;3.73;;
18804;SDS011;9530;48.930;9.526;2022-07-23T09:54:21;5.83;;;3.90;;
18804;SDS011;9530;48.930;9.526;2022-07-23T09:56:51;4.30;;;3.80;;
18804;SDS011;9530;48.930;9.526;2022-07-23T09:59:18;4.10;;;3.70;;
18804;SDS011;9530;48.930;9.526;2022-07-23T10:01:48;11.23;;;3.77;;
18804;SDS011;9530;48.930;9.526;2022-07-23T10:04:15;4.57;;;4.10;;
18804;SDS011;9530;48.930;9.526;2022-07-23T10:06:44;4.40;;;3.57;;
18804;SDS011;9530;48.930;9.526;2022-07-23T10:09:11;3.93;;;3.53;;
18804;SDS011;9530;48.930;9.526;2022-07-23T10:11:39;4.00;;;3.60;;
18804;SDS011;9530;48.930;9.526;2022-07-23T10:14:06;5.50;;;3.67;;
18804;SDS011;9530;48.930;9.526;2022-07-23T10:16:33;3.70;;;3.23;;
18804;SDS011;9530;48.930;9.526;2022-07-23T10:19:00;4.13;;;3.40;;
18804;SDS011;9530;48.930;9.526;2022-07-23T10:21:30;5.13;;;3.77;;
18804;SDS011;9530;48.930;9.526;2022-07-23T10:24:10;4.00;;;3.60;;
18804;SDS011;9530;48.930;9.526;2022-07-23T10:26:47;4.53;;;3.80;;
18804;SDS011;9530;48.930;9.526;2022-07-23T10:29:23;3.97;;;3.57;;
18804;SDS011;9530;48.930;9.526;2022-07-23T10:32:04;5.00;;;4.03;;
18804;SDS011;9530;48.930;9.526;2022-07-23T10:34:40;3.70;;;3.40;;
18804;SDS011;9530;48.930;9.526;2022-07-23T10:37:14;6.07;;;3.47;;
18804;SDS011;9530;48.930;9.526;2022-07-23T10:39:47;5.70;;;3.60;;
18804;SDS011;9530;48.930;9.526;2022-07-23T10:42:16;5.23;;;3.90;;
18804;SDS011;9530;48.930;9.526;2022-07-23T10:44:43;4.43;;;4.03;;
18804;SDS011;9530;48.930;9.526;2022-07-23T10:47:12;4.47;;;3.90;;
18804;SDS011;9530;48.930;9.526;2022-07-23T10:50:19;4.77;;;3.77;;
18804;SDS011;9530;48.930;9.526;2022-07-23T10:55:41;4.50;;;4.00;;
18804;SDS011;9530;48.930;9.526;2022-07-23T10:58:21;5.60;;;3.93;;
18804;SDS011;9530;48.930;9.526;2022-07-23T11:00:49;4.17;;;3.70;;
18804;SDS011;9530;48.930;9.526;2022-07-23T11:03:33;4.90;;;3.83;;
18804;SDS011;9530;48.930;9.526;2022-07-23T11:06:03;4.83;;;4.03;;
18804;SDS011;9530;48.930;9.526;2022-07-23T11:08:30;4.87;;;4.10;;
18804;SDS011;9530;48.930;9.526;2022-07-23T11:11:07;4.07;;;3.67;;
18804;SDS011;9530;48.930;9.526;2022-07-23T11:13:42;5.73;;;3.70;;
18804;SDS011;9530;48.930;9.526;2022-07-23T11:16:12;5.50;;;3.77;;
18804;SDS011;9530;48.930;9.526;2022-07-23T11:19:03;4.30;;;3.90;;
18804;SDS011;9530;48.930;9.526;2022-07-23T11:21:47;4.80;;;3.93;;
18804;SDS011;9530;48.930;9.526;2022-07-23T11:24:18;5.03;;;3.87;;
18804;SDS011;9530;48.930;9.526;2022-07-23T11:26:50;4.60;;;4.00;;
18804;SDS011;9530;48.930;9.526;2022-07-23T11:29:42;4.30;;;3.90;;
18804;SDS011;9530;48.930;9.526;2022-07-23T11:32:18;3.67;;;3.20;;
18804;SDS011;9530;48.930;9.526;2022-07-23T11:34:56;6.53;;;3.87;;
18804;SDS011;9530;48.930;9.526;2022-07-23T11:37:31;5.50;;;3.70;;
18804;SDS011;9530;48.930;9.526;2022-07-23T11:40:03;6.00;;;4.07;;
18804;SDS011;9530;48.930;9.526;2022-07-23T11:42:33;4.57;;;4.00;;
18804;SDS011;9530;48.930;9.526;2022-07-23T11:45:03;3.97;;;3.57;;
18804;SDS011;9530;48.930;9.526;2022-07-23T11:47:31;4.13;;;3.50;;
18804;SDS011;9530;48.930;9.526;2022-07-23T11:49:58;4.43;;;3.90;;
18804;SDS011;9530;48.930;9.526;2022-07-23T11:52:26;5.13;;;3.63;;
18804;SDS011;9530;48.930;9.526;2022-07-23T11:54:54;4.03;;;3.63;;
18804;SDS011;9530;48.930;9.526;2022-07-23T11:57:23;4.37;;;3.80;;
18804;SDS011;9530;48.930;9.526;2022-07-23T11:59:53;6.40;;;4.00;;
18804;SDS011;9530;48.930;9.526;2022-07-23T12:02:23;4.03;;;3.63;;
18804;SDS011;9530;48.930;9.526;2022-07-23T12:04:51;5.40;;;3.93;;
18804;SDS011;9530;48.930;9.526;2022-07-23T12:07:22;4.73;;;3.93;;
18804;SDS011;9530;48.930;9.526;2022-07-23T12:09:58;6.67;;;3.73;;
18804;SDS011;9530;48.930;9.526;2022-07-23T12:12:26;3.50;;;3.20;;
18804;SDS011;9530;48.930;9.526;2022-07-23T12:14:54;6.53;;;3.70;;
18804;SDS011;9530;48.930;9.526;2022-07-23T12:17:28;4.57;;;3.50;;
18804;SDS011;9530;48.930;9.526;2022-07-23T12:19:56;4.33;;;3.70;;
18804;SDS011;9530;48.930;9.526;2022-07-23T12:22:24;3.93;;;3.37;;
18804;SDS011;9530;48.930;9.526;2022-07-23T12:24:52;4.67;;;4.20;;
18804;SDS011;9530;48.930;9.526;2022-07-23T12:27:23;4.33;;;3.73;;
18804;SDS011;9530;48.930;9.526;2022-07-23T12:29:50;4.70;;;4.30;;
18804;SDS011;9530;48.930;9.526;2022-07-23T12:32:18;6.63;;;4.53;;
18804;SDS011;9530;48.930;9.526;2022-07-23T12:34:49;4.33;;;3.93;;
18804;SDS011;9530;48.930;9.526;2022-07-23T12:37:26;4.10;;;3.70;;
18804;SDS011;9530;48.930;9.526;2022-07-23T12:39:54;4.47;;;3.90;;
18804;SDS011;9530;48.930;9.526;2022-07-23T12:42:21;5.27;;;3.87;;
18804;SDS011;9530;48.930;9.526;2022-07-23T12:45:05;5.13;;;3.90;;
18804;SDS011;9530;48.930;9.526;2022-07-23T12:47:52;5.60;;;3.77;;
18804;SDS011;9530;48.930;9.526;2022-07-23T12:50:31;4.50;;;3.97;;
18804;SDS011;9530;48.930;9.526;2022-07-23T12:53:03;4.20;;;3.80;;
18804;SDS011;9530;48.930;9.526;2022-07-23T12:55:31;4.97;;;4.47;;
18804;SDS011;9530;48.930;9.526;2022-07-23T12:58:08;5.87;;;4.20;;
18804;SDS011;9530;48.930;9.526;2022-07-23T13:03:33;4.33;;;3.93;;
18804;SDS011;9530;48.930;9.526;2022-07-23T13:06:03;5.60;;;4.10;;
18804;SDS011;9530;48.930;9.526;2022-07-23T13:08:32;4.20;;;3.80;;
18804;SDS011;9530;48.930;9.526;2022-07-23T13:11:00;7.23;;;4.10;;
18804;SDS011;9530;48.930;9.526;2022-07-23T13:13:27;4.73;;;3.87;;
18804;SDS011;9530;48.930;9.526;2022-07-23T13:15:56;4.77;;;4.37;;
18804;SDS011;9530;48.930;9.526;2022-07-23T13:18:23;4.43;;;3.80;;
18804;SDS011;9530;48.930;9.526;2022-07-23T13:20:51;4.70;;;4.07;;
18804;SDS011;9530;48.930;9.526;2022-07-23T13:23:20;4.93;;;4.43;;
18804;SDS011;9530;48.930;9.526;2022-07-23T13:25:47;6.10;;;4.57;;
18804;SDS011;9530;48.930;9.526;2022-07-23T13:28:14;5.87;;;4.17;;
18804;SDS011;9530;48.930;9.526;2022-07-23T13:30:42;5.07;;;4.57;;
18804;SDS011;9530;48.930;9.526;2022-07-23T13:33:10;5.23;;;4.73;;
18804;SDS011;9530;48.930;9.526;2022-07-23T13:35:37;6.03;;;4.67;;
18804;SDS011;9530;48.930;9.526;2022-07-23T13:38:04;4.47;;;4.07;;
18804;SDS011;9530;48.930;9.526;2022-07-23T13:40:34;5.33;;;4.20;;
18804;SDS011;9530;48.930;9.526;2022-07-23T13:43:03;5.70;;;4.53;;
18804;SDS011;9530;48.930;9.526;2022-07-23T13:45:30;6.63;;;4.70;;
18804;SDS011;9530;48.930;9.526;2022-07-23T13:47:57;5.23;;;4.30;;
18804;SDS011;9530;48.930;9.526;2022-07-23T13:50:24;7.17;;;4.53;;
18804;SDS011;9530;48.930;9.526;2022-07-23T13:52:50;6.40;;;4.33;;
18804;SDS011;9530;48.930;9.526;2022-07-23T13:55:17;6.60;;;5.13;;
18804;SDS011;9530;48.930;9.526;2022-07-23T13:57:45;6.67;;;4.63;;
18804;SDS011;9530;48.930;9.526;2022-07-23T14:00:12;7.83;;;4.70;;
18804;SDS011;9530;48.930;9.526;2022-07-23T14:02:40;6.43;;;4.63;;
18804;SDS011;9530;48.930;9.526;2022-07-23T14:05:09;6.60;;;4.63;;
18804;SDS011;9530;48.930;9.526;2022-07-23T14:07:36;5.30;;;4.80;;
18804;SDS011;9530;48.930;9.526;2022-07-23T14:10:04;5.27;;;4.77;;
18804;SDS011;9530;48.930;9.526;2022-07-23T14:12:32;7.20;;;4.90;;
18804;SDS011;9530;48.930;9.526;2022-07-23T14:15:00;5.03;;;4.53;;
18804;SDS011;9530;48.930;9.526;2022-07-23T14:17:27;5.00;;;4.40;;
18804;SDS011;9530;48.930;9.526;2022-07-23T14:19:54;7.63;;;4.90;;
18804;SDS011;9530;48.930;9.526;2022-07-23T14:22:20;5.53;;;4.97;;
18804;SDS011;9530;48.930;9.526;2022-07-23T14:24:47;5.70;;;4.63;;
18804;SDS011;9530;48.930;9.526;2022-07-23T14:27:14;6.80;;;4.70;;
18804;SDS011;9530;48.930;9.526;2022-07-23T14:29:41;7.70;;;4.87;;
18804;SDS011;9530;48.930;9.526;2022-07-23T14:32:09;7.20;;;5.23;;
18804;SDS011;9530;48.930;9.526;2022-07-23T14:34:36;6.40;;;5.10;;
18804;SDS011;9530;48.930;9.526;2022-07-23T14:37:03;6.70;;;5.03;;
18804;SDS011;9530;48.930;9.526;2022-07-23T14:39:30;5.43;;;4.93;;
18804;SDS011;9530;48.930;9.526;2022-07-23T14:41:56;5.10;;;4.60;;
18804;SDS011;9530;48.930;9.526;2022-07-23T14:44:23;5.57;;;4.50;;
18804;SDS011;9530;48.930;9.526;2022-07-23T14:46:50;6.10;;;4.73;;
18804;SDS011;9530;48.930;9.526;2022-07-23T14:49:18;5.70;;;4.87;;
18804;SDS011;9530;48.930;9.526;2022-07-23T14:51:44;4.90;;;4.40;;
18804;SDS011;9530;48.930;9.526;2022-07-23T14:54:11;6.33;;;4.53;;
18804;SDS011;9530;48.930;9.526;2022-07-23T14:56:39;5.73;;;4.33;;
18804;SDS011;9530;48.930;9.526;2022-07-23T14:59:06;7.10;;;4.57;;
18804;SDS011;9530;48.930;9.526;2022-07-23T15:01:33;4.40;;;3.93;;
18804;SDS011;9530;48.930;9.526;2022-07-23T15:04:01;4.93;;;4.43;;
18804;SDS011;9530;48.930;9.526;2022-07-23T15:06:29;5.07;;;4.57;;
18804;SDS011;9530;48.930;9.526;2022-07-23T15:08:56;8.60;;;4.50;;
18804;SDS011;9530;48.930;9.526;2022-07-23T15:11:23;4.60;;;4.20;;
18804;SDS011;9530;48.930;9.526;2022-07-23T15:13:50;8.37;;;5.20;;
18804;SDS011;9530;48.930;9.526;2022-07-23T15:16:17;7.57;;;4.50;;